createdAt,value
2022-12-07T00:04:50.846Z,85.96
2022-12-07T00:09:54.323Z,86.10
2022-12-07T00:14:57.896Z,86.27
2022-12-07T00:20:01.897Z,86.03
2022-12-07T00:25:05.873Z,86.17
2022-12-07T00:30:09.396Z,86.07
2022-12-07T00:35:12.830Z,86.11
2022-12-07T00:40:15.892Z,86.20
2022-12-07T00:45:19.513Z,86.46
2022-12-07T00:50:22.913Z,86.25
2022-12-07T00:55:26.186Z,86.06
2022-12-07T01:00:29.741Z,86.31
2022-12-07T01:05:33.111Z,86.33
2022-12-07T01:10:36.702Z,86.23
2022-12-07T01:15:44.964Z,86.23
2022-12-07T01:20:59.357Z,86.10
2022-12-07T01:26:06.975Z,86.19
2022-12-07T01:31:13.300Z,86.24
2022-12-07T01:36:17.062Z,86.68
2022-12-07T01:41:22.695Z,86.37
2022-12-07T01:46:26.330Z,86.39
2022-12-07T01:51:29.884Z,86.72
2022-12-07T01:56:33.741Z,86.58
2022-12-07T02:01:37.227Z,86.44
2022-12-07T02:06:43.250Z,86.47
2022-12-07T02:11:47.703Z,86.12
2022-12-07T02:17:30.434Z,86.20
2022-12-07T02:23:09.799Z,86.12
2022-12-07T02:28:37.181Z,86.34
2022-12-07T02:34:03.217Z,86.21
2022-12-07T02:39:28.427Z,86.19
2022-12-07T02:44:33.538Z,86.66
2022-12-07T02:49:40.261Z,86.41
2022-12-07T02:54:43.769Z,86.37
2022-12-07T02:59:49.073Z,85.97
2022-12-07T03:04:58.692Z,86.24
2022-12-07T03:10:12.027Z,86.22
2022-12-07T03:15:34.822Z,86.18
2022-12-07T03:20:41.037Z,86.27
2022-12-07T03:25:48.917Z,86.16
2022-12-07T03:31:02.814Z,86.09
2022-12-07T03:36:29.050Z,86.09
2022-12-07T03:41:43.530Z,85.98
2022-12-07T03:47:10.696Z,85.98
2022-12-07T03:52:37.847Z,86.10
2022-12-07T03:57:44.942Z,86.32
2022-12-07T04:08:31.016Z,85.90
2022-12-07T04:13:54.660Z,86.01
2022-12-07T04:18:58.640Z,86.19
2022-12-07T04:24:02.404Z,86.06
2022-12-07T04:29:07.911Z,86.24
2022-12-07T04:34:12.918Z,86.21
2022-12-07T04:39:25.799Z,86.09
2022-12-07T04:44:30.195Z,86.24
2022-12-07T04:49:33.960Z,86.28
2022-12-07T04:54:37.493Z,86.15
2022-12-07T04:59:45.343Z,86.23
2022-12-07T05:04:49.752Z,86.52
2022-12-07T05:09:53.601Z,86.75
2022-12-07T05:14:56.982Z,86.62
2022-12-07T05:20:01.365Z,86.66
2022-12-07T05:25:05.690Z,87.05
2022-12-07T05:30:09.798Z,87.26
2022-12-07T05:35:13.474Z,86.62
2022-12-07T05:40:18.259Z,86.93
2022-12-07T05:45:24.990Z,87.22
2022-12-07T05:50:29.766Z,86.87
2022-12-07T05:55:33.396Z,87.21
2022-12-07T06:00:38.650Z,87.54
2022-12-07T06:05:43.137Z,87.42
2022-12-07T06:11:09.210Z,87.46
2022-12-07T06:16:13.597Z,87.58
2022-12-07T06:21:18.946Z,87.56
2022-12-07T06:26:23.034Z,87.41
2022-12-07T06:31:27.470Z,87.58
2022-12-07T06:36:32.213Z,87.78
2022-12-07T06:41:40.623Z,87.60
2022-12-07T06:46:44.597Z,87.56
2022-12-07T06:51:48.692Z,87.43
2022-12-07T06:56:53.047Z,87.58
2022-12-07T07:01:57.340Z,87.39
2022-12-07T07:07:01.154Z,87.44
2022-12-07T07:12:04.699Z,87.47
2022-12-07T07:17:09.288Z,87.53
2022-12-07T07:22:13.887Z,87.68
2022-12-07T07:27:17.618Z,87.58
2022-12-07T07:32:22.952Z,87.68
2022-12-07T07:37:27.129Z,87.66
2022-12-07T07:42:30.776Z,87.45
2022-12-07T07:47:34.659Z,87.01
2022-12-07T07:52:38.463Z,87.19
2022-12-07T07:57:42.486Z,87.35
2022-12-07T08:02:47.594Z,87.08
2022-12-07T08:07:51.630Z,87.11
2022-12-07T08:13:17.178Z,87.20
2022-12-07T08:18:22.097Z,87.07
2022-12-07T08:23:33.571Z,87.20
2022-12-07T08:28:42.296Z,87.24
2022-12-07T08:33:47.845Z,87.07
2022-12-07T08:39:22.979Z,86.93
2022-12-07T08:44:16.517Z,87.10
2022-12-07T08:49:26.186Z,87.22
2022-12-07T08:54:30.230Z,87.06
2022-12-07T08:59:37.521Z,86.70
2022-12-07T09:04:41.694Z,86.73
2022-12-07T09:09:45.437Z,86.62
2022-12-07T09:14:49.106Z,86.80
2022-12-07T09:19:52.958Z,87.04
2022-12-07T09:24:58.736Z,86.77
2022-12-07T09:30:04.916Z,86.90
2022-12-07T09:35:09.177Z,86.59
2022-12-07T09:40:13.707Z,86.23
2022-12-07T09:45:22.894Z,86.36
2022-12-07T09:50:30.242Z,86.89
2022-12-07T09:55:35.178Z,87.06
2022-12-07T10:00:38.413Z,86.90
2022-12-07T10:05:46.862Z,86.82
2022-12-07T10:10:57.573Z,86.65
2022-12-07T10:16:06.991Z,86.51
2022-12-07T10:21:18.989Z,86.36
2022-12-07T10:26:29.908Z,86.48
2022-12-07T10:31:34.245Z,86.49
2022-12-07T10:36:39.991Z,86.65
2022-12-07T10:41:59.128Z,86.51
2022-12-07T10:47:29.655Z,86.41
2022-12-07T10:52:45.215Z,86.33
2022-12-07T10:58:16.661Z,86.43
2022-12-07T11:03:46.662Z,85.64
2022-12-07T11:08:57.283Z,85.58
2022-12-07T11:14:23.177Z,85.50
2022-12-07T11:20:01.470Z,85.21
2022-12-07T11:25:11.387Z,85.61
2022-12-07T11:30:43.875Z,85.43
2022-12-07T11:35:47.613Z,85.61
2022-12-07T11:40:55.831Z,85.29
2022-12-07T11:46:18.268Z,85.05
2022-12-07T11:51:26.751Z,85.10
2022-12-07T11:56:38.307Z,85.12
2022-12-07T12:01:54.708Z,85.18
2022-12-07T12:06:58.466Z,84.91
2022-12-07T12:18:03.254Z,84.86
2022-12-07T12:23:41.521Z,85.00
2022-12-07T12:29:00.275Z,85.11
2022-12-07T12:34:25.989Z,84.83
2022-12-07T12:39:30.067Z,84.95
2022-12-07T12:44:33.718Z,84.93
2022-12-07T12:49:41.596Z,84.91
2022-12-07T12:55:26.220Z,84.88
2022-12-07T13:00:30.680Z,84.74
2022-12-07T13:05:34.850Z,85.29
2022-12-07T13:10:45.766Z,85.36
2022-12-07T13:16:09.012Z,85.13
2022-12-07T13:21:12.427Z,85.16
2022-12-07T13:26:20.838Z,85.31
2022-12-07T13:31:47.728Z,85.38
2022-12-07T13:36:53.233Z,85.28
2022-12-07T13:41:59.219Z,85.40
2022-12-07T13:47:27.547Z,85.85
2022-12-07T13:52:32.664Z,85.66
2022-12-07T13:57:37.589Z,85.70
2022-12-07T14:02:57.635Z,86.12
2022-12-07T14:08:24.437Z,86.23
2022-12-07T14:13:31.957Z,86.10
2022-12-07T14:18:41.448Z,86.12
2022-12-07T14:23:46.787Z,86.32
2022-12-07T14:28:50.852Z,85.88
2022-12-07T14:33:54.443Z,86.02
2022-12-07T14:38:59.470Z,86.20
2022-12-07T14:44:23.032Z,85.99
2022-12-07T14:49:35.550Z,85.97
2022-12-07T14:54:44.057Z,85.94
2022-12-07T14:59:50.768Z,85.93
2022-12-07T15:04:54.530Z,86.22
2022-12-07T15:09:58.277Z,86.15
2022-12-07T15:15:03.460Z,86.41
2022-12-07T15:20:13.243Z,86.24
2022-12-07T15:25:18.414Z,86.00
2022-12-07T15:30:23.043Z,86.00
2022-12-07T15:35:26.883Z,85.99
2022-12-07T15:40:30.749Z,86.08
2022-12-07T15:45:34.691Z,86.28
2022-12-07T15:50:38.728Z,85.49
2022-12-07T15:55:43.649Z,85.38
2022-12-07T16:00:51.423Z,85.96
2022-12-07T16:05:57.584Z,85.90
2022-12-07T16:11:01.412Z,85.38
2022-12-07T16:16:08.708Z,85.55
2022-12-07T16:21:13.681Z,85.73
2022-12-07T16:26:20.252Z,85.58
2022-12-07T16:31:26.739Z,85.86
2022-12-07T16:41:55.174Z,86.01
2022-12-07T16:46:58.612Z,86.05
2022-12-07T16:52:19.889Z,86.22
2022-12-07T16:57:24.273Z,86.31
2022-12-07T17:02:28.258Z,86.27
2022-12-07T17:07:32.503Z,85.98
2022-12-07T17:12:37.093Z,86.04
2022-12-07T17:17:41.786Z,85.90
2022-12-07T17:22:45.694Z,85.57
2022-12-07T17:27:52.379Z,85.90
2022-12-07T17:32:56.341Z,85.72
2022-12-07T17:38:00.002Z,85.65
2022-12-07T17:43:04.039Z,85.46
2022-12-07T17:48:07.755Z,85.93
2022-12-07T17:53:14.217Z,85.87
2022-12-07T17:58:18.890Z,85.85
2022-12-07T18:03:23.341Z,85.59
2022-12-07T18:08:28.412Z,85.46
2022-12-07T18:13:38.343Z,85.76
2022-12-07T18:18:47.644Z,85.31
2022-12-07T18:23:57.998Z,85.41
2022-12-07T18:29:03.109Z,85.41
2022-12-07T18:34:12.554Z,85.39
2022-12-07T18:39:19.178Z,84.94
2022-12-07T18:44:24.372Z,85.09
2022-12-07T18:49:31.066Z,85.23
2022-12-07T18:54:35.485Z,84.92
2022-12-07T18:59:47.975Z,85.07
2022-12-07T19:04:52.737Z,84.88
2022-12-07T19:09:56.835Z,85.21
2022-12-07T19:15:01.140Z,85.09
2022-12-07T19:20:08.156Z,85.02
2022-12-07T19:25:12.494Z,85.01
2022-12-07T19:30:18.206Z,85.03
2022-12-07T19:35:21.567Z,85.40
2022-12-07T19:40:25.500Z,85.08
2022-12-07T19:45:31.050Z,85.28
2022-12-07T19:50:34.889Z,85.08
2022-12-07T19:55:44.100Z,85.31
2022-12-07T20:00:49.996Z,85.38
2022-12-07T20:05:53.860Z,85.18
2022-12-07T20:10:59.015Z,85.11
2022-12-07T20:16:19.506Z,85.03
2022-12-07T20:21:24.940Z,84.79
2022-12-07T20:26:28.924Z,84.71
2022-12-07T20:31:32.614Z,84.49
2022-12-07T20:36:36.982Z,85.27
2022-12-07T20:41:59.164Z,84.98
2022-12-07T20:47:03.687Z,85.35
2022-12-07T20:52:07.287Z,85.26
2022-12-07T20:57:10.753Z,85.35
2022-12-07T21:02:15.289Z,85.66
2022-12-07T21:07:20.223Z,85.58
2022-12-07T21:12:24.464Z,85.06
2022-12-07T21:17:28.888Z,84.85
2022-12-07T21:22:32.988Z,84.15
2022-12-07T21:27:36.867Z,84.67
2022-12-07T21:32:41.774Z,84.75
2022-12-07T21:37:45.840Z,85.00
2022-12-07T21:42:54.008Z,84.97
2022-12-07T21:47:57.485Z,84.89
2022-12-07T21:53:04.930Z,84.97
2022-12-07T21:58:12.698Z,85.00
2022-12-07T22:03:16.177Z,85.06
2022-12-07T22:08:20.807Z,85.01
2022-12-07T22:13:44.577Z,85.52
2022-12-07T22:18:48.092Z,85.54
2022-12-07T22:23:51.828Z,85.46
2022-12-07T22:28:55.290Z,85.86
2022-12-07T22:33:58.879Z,85.78
2022-12-07T22:39:02.310Z,85.64
2022-12-07T22:44:10.453Z,85.17
2022-12-07T22:49:14.015Z,85.33
2022-12-07T22:54:17.865Z,85.44
2022-12-07T22:59:21.228Z,85.36
2022-12-07T23:04:25.197Z,85.05
2022-12-07T23:09:28.788Z,85.05
2022-12-07T23:14:35.072Z,85.29
2022-12-07T23:19:38.549Z,85.23
2022-12-07T23:24:42.794Z,84.94
2022-12-07T23:29:46.797Z,84.47
2022-12-07T23:34:50.686Z,84.63
2022-12-07T23:39:55.178Z,84.53
2022-12-07T23:44:59.565Z,84.79
2022-12-07T23:50:04.602Z,84.68
2022-12-07T23:55:08.695Z,84.57
